Time;durP1;ratioP1;P1;durP2;ratioP2;P2;SDS_P1;SDS_P2;PMS_P1;PMS_P2;Temp;Humidity;BMP_temperature;BMP_pressure;BME280_temperature;BME280_humidity;BME280_pressure;Samples;Min_cycle;Max_cycle;Signal;HPM_P1;HPM_P2
2021/03/12 00:01:17;;;;;;;0.55;0.10;;;5.00;85.70;;;;;;5053530;28;20031;-73
2021/03/12 00:03:43;;;;;;;0.30;0.10;;;4.90;85.80;;;;;;5053504;28;20077;-74
2021/03/12 00:06:11;;;;;;;0.80;0.45;;;4.90;85.40;;;;;;5035581;28;20056;-73
2021/03/12 00:08:42;;;;;;;0.63;0.30;;;4.90;85.40;;;;;;5035537;28;20035;-74
2021/03/12 00:11:09;;;;;;;2.13;0.28;;;5.00;84.10;;;;;;5053310;28;20033;-74
2021/03/12 00:13:36;;;;;;;1.95;0.13;;;5.00;83.80;;;;;;5053211;28;20426;-73
2021/03/12 00:16:04;;;;;;;0.52;0.10;;;5.10;83.10;;;;;;5053084;28;20505;-73
2021/03/12 00:18:39;;;;;;;1.67;0.20;;;5.10;83.40;;;;;;5053254;28;20061;-74
2021/03/12 00:21:06;;;;;;;0.45;0.10;;;5.10;82.50;;;;;;5053169;28;20025;-74
2021/03/12 00:23:33;;;;;;;1.15;0.20;;;5.20;81.50;;;;;;5053171;28;20033;-73
2021/03/12 00:25:58;;;;;;;0.55;0.28;;;5.20;80.90;;;;;;5053248;28;20049;-73
2021/03/12 00:28:24;;;;;;;2.20;0.43;;;5.10;81.00;;;;;;5053220;28;20367;-74
2021/03/12 00:30:50;;;;;;;0.88;0.17;;;5.20;81.50;;;;;;5053014;28;20021;-73
2021/03/12 00:33:21;;;;;;;0.43;0.17;;;5.20;81.40;;;;;;5053089;28;20390;-73
2021/03/12 00:35:47;;;;;;;0.98;0.20;;;5.20;81.30;;;;;;5052927;28;20514;-73
2021/03/12 00:38:13;;;;;;;0.65;0.32;;;5.10;81.50;;;;;;5035155;28;20056;-73
2021/03/12 00:40:50;;;;;;;2.20;0.40;;;5.20;81.30;;;;;;5052900;28;20021;-73
2021/03/12 00:43:17;;;;;;;6.65;0.47;;;5.20;81.40;;;;;;5053005;28;20104;-73
2021/03/12 00:45:45;;;;;;;0.82;0.28;;;5.20;81.30;;;;;;5052834;28;20027;-73
2021/03/12 00:48:11;;;;;;;2.63;0.40;;;5.20;81.00;;;;;;5053036;28;20086;-73
2021/03/12 00:50:39;;;;;;;4.00;0.47;;;5.30;80.40;;;;;;5058990;28;20020;-73
2021/03/12 00:53:06;;;;;;;2.05;0.20;;;5.30;80.70;;;;;;5059485;28;20029;-73
2021/03/12 00:55:33;;;;;;;2.20;0.47;;;5.30;79.20;;;;;;5059376;28;20033;-72
2021/03/12 00:57:59;;;;;;;2.20;0.40;;;5.40;78.70;;;;;;5041570;28;20021;-72
2021/03/12 01:00:26;;;;;;;3.33;0.28;;;5.40;79.00;;;;;;5059388;28;20434;-73
2021/03/12 01:02:52;;;;;;;4.22;0.65;;;5.40;79.50;;;;;;5059287;28;20470;-73
2021/03/12 01:05:20;;;;;;;3.30;0.55;;;5.50;78.80;;;;;;5059345;28;20028;-73
2021/03/12 01:07:46;;;;;;;2.63;0.57;;;5.40;78.00;;;;;;5059375;28;20179;-73
2021/03/12 01:10:13;;;;;;;1.05;0.30;;;5.40;78.50;;;;;;5059388;28;20151;-74
2021/03/12 01:12:40;;;;;;;3.03;0.40;;;5.50;77.90;;;;;;5059216;28;20039;-73
2021/03/12 01:15:08;;;;;;;2.65;0.30;;;5.50;78.00;;;;;;5059225;28;20107;-73
2021/03/12 01:17:34;;;;;;;1.80;0.45;;;5.50;77.70;;;;;;5059368;28;20108;-73
2021/03/12 01:19:59;;;;;;;15.60;5.75;;;5.50;77.60;;;;;;5059337;28;20190;-73
2021/03/12 01:22:25;;;;;;;4.10;0.80;;;5.50;78.00;;;;;;5059175;28;20103;-73
2021/03/12 01:24:50;;;;;;;3.45;0.95;;;5.50;78.50;;;;;;5059223;28;20116;-73
2021/03/12 01:27:16;;;;;;;6.03;0.30;;;5.50;78.20;;;;;;5059228;28;20396;-73
2021/03/12 01:29:42;;;;;;;5.68;0.63;;;5.60;78.20;;;;;;5059205;28;20025;-73
2021/03/12 01:32:08;;;;;;;4.00;0.50;;;5.60;77.80;;;;;;5059176;28;20029;-73
2021/03/12 01:34:33;;;;;;;2.10;0.70;;;5.70;77.10;;;;;;5059099;28;20029;-73
2021/03/12 01:36:59;;;;;;;2.75;0.68;;;5.70;77.30;;;;;;5059056;28;20476;-73
2021/03/12 01:39:25;;;;;;;7.45;0.80;;;5.70;77.20;;;;;;5059107;28;20432;-73
2021/03/12 01:41:50;;;;;;;2.58;0.63;;;5.70;77.10;;;;;;5058759;28;20055;-73
2021/03/12 01:44:16;;;;;;;4.78;0.60;;;5.80;76.80;;;;;;5059103;28;20396;-73
2021/03/12 01:46:42;;;;;;;3.78;0.75;;;5.80;76.80;;;;;;5058974;28;20413;-73
2021/03/12 01:49:08;;;;;;;4.18;0.50;;;5.80;76.60;;;;;;5059007;28;20021;-73
2021/03/12 01:51:34;;;;;;;4.82;0.70;;;5.80;76.90;;;;;;5059090;28;20060;-73
2021/03/12 01:54:01;;;;;;;5.78;0.73;;;5.70;77.30;;;;;;5058945;28;20432;-73
2021/03/12 01:56:26;;;;;;;5.05;0.57;;;5.70;76.90;;;;;;5058927;28;20037;-72
2021/03/12 01:58:53;;;;;;;2.58;0.50;;;5.70;76.90;;;;;;5058865;28;20052;-73
2021/03/12 02:01:19;;;;;;;2.45;0.68;;;5.70;76.70;;;;;;5059080;28;20245;-73
2021/03/12 02:03:44;;;;;;;7.13;1.00;;;5.60;76.70;;;;;;5058682;28;20017;-73
2021/03/12 02:06:10;;;;;;;2.97;0.65;;;5.60;77.00;;;;;;5040293;28;20167;-73
2021/03/12 02:08:36;;;;;;;5.25;0.60;;;5.60;77.20;;;;;;5055970;28;20503;-73
2021/03/12 02:11:02;;;;;;;2.97;0.47;;;5.60;77.40;;;;;;5037696;28;20112;-73
2021/03/12 02:13:57;;;;;;;3.38;0.50;;;5.50;78.20;;;;;;5055370;28;20049;-73
2021/03/12 02:16:41;;;;;;;3.00;0.63;;;5.50;78.50;;;;;;5031889;28;20064;-73
2021/03/12 02:19:43;;;;;;;6.07;0.40;;;5.50;78.50;;;;;;5055525;28;20025;-72
2021/03/12 02:22:10;;;;;;;3.85;0.75;;;5.50;79.00;;;;;;5037556;28;20079;-72
2021/03/12 02:24:56;;;;;;;3.58;0.70;;;5.50;79.50;;;;;;5055432;28;20450;-73
2021/03/12 02:27:23;;;;;;;3.65;0.93;;;5.40;79.20;;;;;;5055350;28;20028;-73
2021/03/12 02:29:52;;;;;;;1.77;0.43;;;5.50;79.50;;;;;;5055176;28;20115;-73
2021/03/12 02:32:25;;;;;;;4.57;0.75;;;5.40;80.00;;;;;;5037570;28;20091;-72
2021/03/12 02:34:52;;;;;;;1.88;0.50;;;5.20;80.40;;;;;;5055081;28;20087;-72
2021/03/12 02:37:20;;;;;;;3.83;0.82;;;5.30;81.00;;;;;;5055306;28;20025;-72
2021/03/12 02:39:53;;;;;;;4.28;0.80;;;5.30;81.40;;;;;;5054919;28;20033;-73
2021/03/12 02:42:20;;;;;;;3.40;0.40;;;5.20;82.10;;;;;;5055083;28;20099;-73
2021/03/12 02:44:48;;;;;;;1.30;0.38;;;5.10;82.30;;;;;;5054957;28;20603;-73
2021/03/12 02:47:19;;;;;;;2.30;0.50;;;5.20;82.50;;;;;;5055040;28;20025;-73
2021/03/12 02:49:46;;;;;;;4.55;0.43;;;5.20;82.50;;;;;;5054912;28;20040;-73
2021/03/12 02:52:12;;;;;;;2.92;0.68;;;5.20;82.10;;;;;;5054947;28;20032;-74
2021/03/12 02:54:38;;;;;;;4.10;0.60;;;5.20;82.20;;;;;;5054378;28;20036;-73
2021/03/12 02:57:05;;;;;;;2.67;0.60;;;5.10;82.80;;;;;;5036996;28;20501;-73
2021/03/12 02:59:31;;;;;;;1.95;0.38;;;5.00;82.60;;;;;;5054717;28;20402;-73
2021/03/12 03:01:57;;;;;;;2.40;0.30;;;5.00;83.30;;;;;;5054566;28;20024;-73
2021/03/12 03:04:24;;;;;;;1.17;0.30;;;4.90;82.90;;;;;;5054674;28;20096;-73
2021/03/12 03:06:50;;;;;;;1.05;0.35;;;4.90;82.50;;;;;;5056721;28;20036;-72
2021/03/12 03:09:18;;;;;;;2.28;0.40;;;4.80;82.00;;;;;;5062911;28;20017;-72
2021/03/12 03:11:46;;;;;;;1.13;0.30;;;4.70;82.40;;;;;;5062600;28;20029;-71
2021/03/12 03:14:15;;;;;;;3.45;0.30;;;4.60;83.50;;;;;;5061342;28;20037;-71
2021/03/12 03:16:43;;;;;;;2.15;0.20;;;4.50;84.00;;;;;;5069687;28;20029;-73
2021/03/12 03:19:09;;;;;;;0.95;0.20;;;4.40;84.00;;;;;;5077168;28;20073;-72
2021/03/12 03:21:35;;;;;;;1.67;0.40;;;4.40;84.40;;;;;;5077710;28;20019;-73
2021/03/12 03:24:03;;;;;;;2.92;0.40;;;4.20;85.00;;;;;;5073358;28;20025;-72
2021/03/12 03:26:29;;;;;;;2.72;0.40;;;4.10;86.10;;;;;;5040704;28;20028;-72
2021/03/12 03:28:54;;;;;;;1.05;0.45;;;4.10;87.00;;;;;;5057241;28;20025;-72
2021/03/12 03:31:21;;;;;;;1.75;0.30;;;4.00;87.50;;;;;;5058480;28;20029;-72
2021/03/12 03:33:47;;;;;;;3.40;0.50;;;3.90;88.20;;;;;;5039293;28;20028;-72
2021/03/12 03:36:12;;;;;;;2.28;0.55;;;3.80;88.80;;;;;;5061903;28;20474;-72
2021/03/12 03:38:39;;;;;;;1.05;0.17;;;3.80;88.60;;;;;;5054874;28;20016;-72
2021/03/12 03:41:08;;;;;;;2.63;0.40;;;3.90;88.40;;;;;;5054812;28;20462;-72
2021/03/12 03:43:45;;;;;;;2.17;0.20;;;3.90;88.10;;;;;;5054113;28;20025;-72
2021/03/12 03:46:12;;;;;;;0.35;0.15;;;3.90;87.80;;;;;;5054213;28;20024;-72
2021/03/12 03:48:39;;;;;;;0.20;0.20;;;3.90;87.50;;;;;;5053922;28;20033;-72
2021/03/12 03:51:11;;;;;;;0.25;0.10;;;4.00;87.50;;;;;;5053913;28;20027;-72
2021/03/12 03:53:38;;;;;;;0.68;0.17;;;4.00;86.50;;;;;;5053667;28;20033;-72
2021/03/12 03:56:05;;;;;;;1.60;0.30;;;4.10;85.40;;;;;;5053729;28;20033;-72
2021/03/12 03:58:34;;;;;;;2.30;0.10;;;4.20;83.80;;;;;;5053691;28;20029;-72
2021/03/12 04:01:00;;;;;;;1.25;0.20;;;4.30;82.90;;;;;;5053578;28;20040;-72
2021/03/12 04:03:26;;;;;;;1.55;0.20;;;4.30;82.70;;;;;;5053497;28;20385;-72
2021/03/12 04:05:54;;;;;;;0.52;0.20;;;4.30;81.50;;;;;;5053444;28;20029;-72
2021/03/12 04:08:21;;;;;;;0.50;0.20;;;4.40;81.80;;;;;;5053555;28;20139;-72
2021/03/12 04:10:47;;;;;;;3.00;0.40;;;4.40;81.00;;;;;;5053396;28;20388;-72
2021/03/12 04:13:13;;;;;;;2.58;0.40;;;4.40;81.10;;;;;;5053108;28;20049;-72
2021/03/12 04:15:39;;;;;;;3.15;0.35;;;4.40;81.10;;;;;;5053277;28;20120;-72
2021/03/12 04:18:05;;;;;;;2.33;0.50;;;4.40;81.30;;;;;;5053305;28;20051;-73
2021/03/12 04:20:31;;;;;;;4.68;0.40;;;4.40;81.20;;;;;;5053258;28;20072;-72
2021/03/12 04:22:58;;;;;;;3.80;0.30;;;4.50;80.60;;;;;;5053235;28;20024;-72
2021/03/12 04:25:24;;;;;;;2.55;0.38;;;4.50;80.00;;;;;;5052644;28;20439;-72
2021/03/12 04:27:50;;;;;;;4.43;0.47;;;4.50;80.70;;;;;;5053152;28;20082;-73
2021/03/12 04:30:16;;;;;;;4.53;0.55;;;4.50;80.90;;;;;;5053018;28;20036;-73
2021/03/12 04:32:42;;;;;;;3.60;0.57;;;4.50;80.50;;;;;;5053107;28;20020;-72
2021/03/12 04:35:09;;;;;;;4.60;0.70;;;4.50;80.10;;;;;;5052843;28;20029;-72
2021/03/12 04:37:35;;;;;;;3.63;0.60;;;4.40;79.60;;;;;;5052814;28;20016;-72
2021/03/12 04:40:02;;;;;;;3.85;0.60;;;4.50;79.10;;;;;;5052990;28;20067;-72
2021/03/12 04:42:28;;;;;;;7.65;0.93;;;4.50;79.30;;;;;;5052865;28;20078;-71
2021/03/12 04:44:55;;;;;;;6.57;0.90;;;4.40;79.50;;;;;;5052791;28;20025;-72
2021/03/12 04:47:21;;;;;;;7.38;1.48;;;4.50;79.10;;;;;;5052809;28;20035;-72
2021/03/12 04:49:47;;;;;;;3.28;0.80;;;4.50;78.70;;;;;;5052656;28;20028;-71
2021/03/12 04:52:13;;;;;;;4.13;0.75;;;4.50;78.20;;;;;;5053017;28;20116;-72
2021/03/12 04:54:40;;;;;;;4.22;0.82;;;4.50;78.20;;;;;;5052746;28;20075;-73
2021/03/12 04:57:06;;;;;;;6.20;1.15;;;4.50;77.40;;;;;;5052746;28;20029;-72
2021/03/12 04:59:33;;;;;;;8.25;0.90;;;4.50;77.60;;;;;;5052468;28;20099;-72
2021/03/12 05:01:59;;;;;;;5.35;1.20;;;4.50;77.10;;;;;;5052519;28;20029;-72
2021/03/12 05:04:25;;;;;;;7.72;1.25;;;4.50;78.30;;;;;;5052667;28;20029;-72
2021/03/12 05:06:51;;;;;;;5.50;1.65;;;4.40;77.50;;;;;;5052668;28;20075;-72
2021/03/12 05:09:16;;;;;;;6.75;1.05;;;4.40;77.30;;;;;;5052639;28;20032;-72
2021/03/12 05:11:43;;;;;;;7.95;1.27;;;4.40;77.00;;;;;;5052594;28;20029;-72
2021/03/12 05:14:13;;;;;;;9.75;1.08;;;4.30;77.20;;;;;;5052639;28;20170;-72
2021/03/12 05:16:38;;;;;;;3.70;0.80;;;4.30;76.90;;;;;;5052527;28;20045;-72
2021/03/12 05:19:05;;;;;;;7.53;1.20;;;4.30;75.90;;;;;;5052436;28;20048;-72
2021/03/12 05:21:31;;;;;;;6.38;1.13;;;4.30;75.80;;;;;;5052571;28;20036;-72
2021/03/12 05:24:00;;;;;;;6.13;1.25;;;4.30;75.40;;;;;;5034697;28;20044;-72
2021/03/12 05:26:26;;;;;;;8.82;1.15;;;4.30;74.70;;;;;;5052691;28;20039;-72
2021/03/12 05:28:57;;;;;;;6.43;1.00;;;4.20;74.50;;;;;;5052474;28;20037;-72
2021/03/12 05:31:26;;;;;;;7.70;0.82;;;4.20;74.00;;;;;;5052553;28;20035;-72
2021/03/12 05:33:54;;;;;;;4.60;0.93;;;4.30;73.50;;;;;;5052423;28;20021;-73
2021/03/12 05:36:21;;;;;;;4.30;0.85;;;4.30;72.80;;;;;;5053609;28;20369;-73
2021/03/12 05:38:47;;;;;;;6.30;1.00;;;4.40;72.90;;;;;;5056203;28;20025;-73
2021/03/12 05:41:14;;;;;;;9.90;1.27;;;4.40;73.00;;;;;;5056059;28;20036;-73
2021/03/12 05:43:43;;;;;;;5.63;1.67;;;4.30;72.60;;;;;;5055894;28;20039;-73
2021/03/12 05:46:10;;;;;;;5.93;1.13;;;4.40;71.50;;;;;;5056103;28;20021;-73
2021/03/12 05:48:37;;;;;;;5.82;1.35;;;4.40;70.70;;;;;;5055932;28;20157;-73
2021/03/12 05:51:02;;;;;;;3.42;0.90;;;4.50;70.70;;;;;;5055987;28;20029;-73
2021/03/12 05:53:29;;;;;;;12.00;2.38;;;4.50;69.80;;;;;;5055864;28;20035;-73
2021/03/12 05:55:54;;;;;;;6.78;1.67;;;4.60;69.30;;;;;;5037947;28;20478;-73
2021/03/12 05:58:20;;;;;;;6.03;1.65;;;4.60;68.90;;;;;;5055847;28;20048;-73
2021/03/12 06:00:46;;;;;;;6.47;1.33;;;4.60;68.90;;;;;;5055783;28;20120;-73
2021/03/12 06:03:11;;;;;;;5.95;0.88;;;4.70;69.00;;;;;;5055813;28;20017;-73
2021/03/12 06:05:37;;;;;;;6.63;0.98;;;4.70;68.80;;;;;;5055748;28;20040;-72
2021/03/12 06:08:04;;;;;;;5.95;1.83;;;4.80;69.00;;;;;;5055603;28;20036;-72
2021/03/12 06:10:30;;;;;;;4.68;0.77;;;4.80;69.10;;;;;;5055539;28;20029;-72
2021/03/12 06:12:56;;;;;;;6.30;0.80;;;4.70;70.10;;;;;;5055355;28;20029;-72
2021/03/12 06:15:36;;;;;;;3.90;1.00;;;4.70;70.70;;;;;;5055575;28;20083;-72
2021/03/12 06:18:14;;;;;;;9.90;2.05;;;4.70;71.60;;;;;;5055512;28;20025;-72
2021/03/12 06:20:39;;;;;;;4.95;1.20;;;4.70;72.10;;;;;;5055101;28;20025;-73
2021/03/12 06:23:05;;;;;;;6.72;1.20;;;4.80;71.80;;;;;;5055335;28;20031;-72
2021/03/12 06:25:31;;;;;;;4.05;1.00;;;4.80;72.40;;;;;;5055461;28;20028;-72
2021/03/12 06:28:15;;;;;;;5.78;0.88;;;4.80;72.80;;;;;;5055064;28;20118;-72
2021/03/12 06:30:41;;;;;;;4.90;1.20;;;4.80;72.50;;;;;;5055082;28;20041;-72
2021/03/12 06:33:07;;;;;;;7.88;0.80;;;4.80;72.10;;;;;;5056950;28;20083;-72
2021/03/12 06:35:38;;;;;;;2.20;0.85;;;4.80;72.00;;;;;;5058050;28;20083;-73
2021/03/12 06:38:08;;;;;;;6.18;1.35;;;4.80;72.90;;;;;;5036927;28;20424;-73
2021/03/12 06:40:37;;;;;;;4.68;0.90;;;4.80;72.70;;;;;;5054806;28;20056;-72
2021/03/12 06:43:17;;;;;;;4.53;0.88;;;4.90;72.40;;;;;;5054550;28;20017;-72
2021/03/12 06:45:42;;;;;;;6.65;0.77;;;4.90;72.10;;;;;;5054905;28;20028;-73
2021/03/12 06:48:18;;;;;;;7.20;1.17;;;5.00;71.60;;;;;;5054368;28;20385;-71
2021/03/12 06:50:57;;;;;;;7.40;0.98;;;5.00;71.80;;;;;;5054414;28;20017;-73
2021/03/12 06:53:32;;;;;;;4.68;1.15;;;5.00;71.70;;;;;;5054846;28;20033;-73
2021/03/12 06:56:03;;;;;;;5.50;1.23;;;5.00;71.50;;;;;;5054571;28;20028;-75
2021/03/12 06:58:29;;;;;;;3.20;1.25;;;5.00;71.20;;;;;;5054700;28;20260;-73
2021/03/12 07:00:55;;;;;;;4.43;1.20;;;5.00;70.70;;;;;;5055611;28;20516;-72
2021/03/12 07:03:25;;;;;;;3.92;0.80;;;5.00;70.30;;;;;;5055294;28;20104;-72
2021/03/12 07:06:01;;;;;;;6.30;1.15;;;5.10;70.00;;;;;;5059422;28;20032;-73
2021/03/12 07:08:34;;;;;;;;;;;5.00;69.70;;;;;;5056052;28;20029;-72
2021/03/12 07:11:00;;;;;;;5.40;1.42;;;5.10;69.60;;;;;;5062905;28;19928;-72
2021/03/12 07:13:26;;;;;;;6.22;1.73;;;5.20;69.10;;;;;;5056680;28;20045;-74
2021/03/12 07:15:55;;;;;;;4.80;0.90;;;5.30;68.50;;;;;;5055431;28;20045;-73
2021/03/12 07:18:21;;;;;;;8.38;1.02;;;5.30;67.90;;;;;;5057781;28;20470;-73
2021/03/12 07:20:47;;;;;;;4.03;0.90;;;5.30;67.50;;;;;;5055462;28;20039;-72
2021/03/12 07:23:18;;;;;;;9.18;1.23;;;5.30;67.70;;;;;;5054496;28;20560;-73
2021/03/12 07:25:45;;;;;;;8.68;1.42;;;6.00;74.20;;;;;;5036197;28;20060;-74
2021/03/12 07:28:14;;;;;;;8.43;1.13;;;6.40;71.20;;;;;;5036022;28;20021;-74
2021/03/12 07:30:41;;;;;;;3.70;0.88;;;6.60;69.40;;;;;;5036083;28;20025;-74
2021/03/12 07:33:07;;;;;;;5.65;1.08;;;6.50;66.70;;;;;;5035951;28;20029;-74
2021/03/12 07:35:35;;;;;;;4.45;1.02;;;6.70;67.50;;;;;;5035821;28;20040;-77
2021/03/12 07:38:05;;;;;;;5.25;0.90;;;6.70;67.00;;;;;;5035657;28;20047;-75
2021/03/12 07:40:33;;;;;;;4.43;1.17;;;7.20;68.60;;;;;;5035643;28;20064;-75
2021/03/12 07:42:59;;;;;;;13.05;1.52;;;7.20;65.40;;;;;;5034935;28;20029;-77
2021/03/12 07:45:26;;;;;;;4.28;1.10;;;7.30;65.00;;;;;;5035591;28;20029;-78
2021/03/12 07:47:52;;;;;;;8.63;1.33;;;7.20;64.10;;;;;;5035637;28;20029;-77
2021/03/12 07:50:29;;;;;;;8.27;1.40;;;6.90;62.70;;;;;;5053477;28;20470;-76
2021/03/12 07:52:55;;;;;;;10.20;1.90;;;6.50;63.40;;;;;;5053577;28;20037;-74
2021/03/12 07:55:45;;;;;;;8.18;1.50;;;6.40;64.80;;;;;;5035644;28;20040;-76
2021/03/12 07:58:31;;;;;;;9.35;1.55;;;6.40;65.60;;;;;;5045522;28;20496;-76
2021/03/12 08:00:57;;;;;;;8.27;1.00;;;6.60;65.10;;;;;;5034983;28;20493;-74
2021/03/12 08:03:34;;;;;;;7.55;1.10;;;7.00;64.90;;;;;;5035201;28;20029;-76
2021/03/12 08:06:00;;;;;;;8.57;1.50;;;7.00;64.10;;;;;;5053077;28;20226;-75
2021/03/12 08:08:33;;;;;;;7.47;1.30;;;7.00;62.80;;;;;;5033609;28;20025;-74
2021/03/12 08:11:18;;;;;;;5.85;1.00;;;7.00;62.40;;;;;;5034492;28;20485;-76
2021/03/12 08:13:45;;;;;;;9.88;1.77;;;7.10;62.90;;;;;;5052759;28;20045;-75
2021/03/12 08:16:11;;;;;;;6.68;1.17;;;6.80;63.00;;;;;;5035172;28;20044;-76
2021/03/12 08:18:37;;;;;;;8.55;1.20;;;6.70;64.30;;;;;;5035266;28;20111;-74
2021/03/12 08:21:29;;;;;;;3.95;1.30;;;6.60;65.40;;;;;;5034702;28;20029;-74
2021/03/12 08:23:55;;;;;;;7.80;1.35;;;6.90;67.50;;;;;;5035071;28;20465;-73
2021/03/12 08:26:50;;;;;;;9.13;1.73;;;7.20;66.70;;;;;;5035227;28;20036;-76
2021/03/12 08:29:38;;;;;;;7.30;1.30;;;7.00;65.90;;;;;;5052824;28;20512;-73
2021/03/12 08:32:39;;;;;;;9.05;1.55;;;7.50;66.30;;;;;;5052451;28;20086;-73
2021/03/12 08:35:32;;;;;;;6.50;1.17;;;7.40;64.20;;;;;;5034412;28;20109;-72
2021/03/12 08:37:58;;;;;;;5.38;1.40;;;7.20;63.60;;;;;;5052566;28;20021;-72
2021/03/12 08:40:24;;;;;;;7.20;1.15;;;7.10;64.70;;;;;;5052490;28;20512;-73
2021/03/12 08:43:03;;;;;;;7.72;1.13;;;7.10;65.00;;;;;;5052939;28;20029;-73
2021/03/12 08:45:36;;;;;;;9.73;1.23;;;7.10;65.40;;;;;;5036339;28;20427;-74
2021/03/12 08:48:10;;;;;;;3.47;0.95;;;7.10;64.70;;;;;;5055815;28;20500;-73
2021/03/12 08:50:40;;;;;;;9.27;1.60;;;7.10;64.00;;;;;;5052754;28;20025;-72
2021/03/12 08:53:05;;;;;;;8.20;1.58;;;7.00;64.70;;;;;;5052702;28;20029;-74
2021/03/12 08:55:36;;;;;;;8.88;1.20;;;7.10;65.70;;;;;;5052282;28;20120;-73
2021/03/12 08:58:15;;;;;;;6.43;1.48;;;7.50;64.10;;;;;;5052320;28;20021;-73
2021/03/12 09:00:43;;;;;;;5.63;1.13;;;7.60;63.90;;;;;;5052681;28;20025;-72
2021/03/12 09:03:30;;;;;;;8.88;1.83;;;7.70;61.80;;;;;;5052528;28;20071;-72
2021/03/12 09:06:10;;;;;;;7.20;1.25;;;7.70;61.00;;;;;;5052508;28;20060;-72
2021/03/12 09:08:38;;;;;;;4.70;0.77;;;7.70;59.90;;;;;;5052473;28;20551;-73
2021/03/12 09:11:06;;;;;;;6.20;1.10;;;7.40;57.20;;;;;;5054749;28;20489;-74
2021/03/12 09:13:34;;;;;;;6.70;1.27;;;7.40;57.10;;;;;;5056337;28;20425;-74
2021/03/12 09:16:01;;;;;;;5.70;1.08;;;7.40;58.10;;;;;;5055946;28;20440;-72
2021/03/12 09:18:28;;;;;;;8.13;1.35;;;7.30;58.10;;;;;;5058402;28;20032;-73
2021/03/12 09:20:55;;;;;;;8.57;0.95;;;7.30;58.90;;;;;;5043904;28;20029;-72
2021/03/12 09:23:34;;;;;;;7.00;1.02;;;7.10;57.80;;;;;;5056653;28;20024;-73
2021/03/12 09:26:00;;;;;;;7.57;1.10;;;7.10;57.70;;;;;;5056203;28;20048;-72
2021/03/12 09:28:30;;;;;;;5.75;1.27;;;7.10;57.90;;;;;;5056233;28;20486;-72
2021/03/12 09:30:57;;;;;;;7.40;1.42;;;7.20;58.40;;;;;;5056011;28;20120;-73
2021/03/12 09:33:32;;;;;;;8.95;1.23;;;7.40;58.10;;;;;;5055924;28;20032;-73
2021/03/12 09:35:59;;;;;;;6.53;0.88;;;7.60;56.70;;;;;;5055870;28;20094;-73
2021/03/12 09:38:31;;;;;;;4.93;0.75;;;7.90;56.20;;;;;;5056050;28;20090;-73
2021/03/12 09:40:57;;;;;;;6.70;0.93;;;7.90;55.20;;;;;;5055803;28;20029;-72
2021/03/12 09:43:23;;;;;;;3.08;1.00;;;8.10;53.90;;;;;;5055991;28;20488;-73
2021/03/12 09:45:49;;;;;;;7.28;3.08;;;8.10;54.30;;;;;;5055967;28;20032;-73
2021/03/12 09:48:15;;;;;;;4.78;1.00;;;8.20;54.30;;;;;;5037944;28;20021;-73
2021/03/12 09:50:41;;;;;;;10.57;1.52;;;8.50;53.30;;;;;;5038179;28;20094;-73
2021/03/12 09:53:07;;;;;;;5.43;1.00;;;8.70;52.20;;;;;;5056047;28;20374;-73
2021/03/12 09:55:35;;;;;;;8.02;0.88;;;9.00;50.50;;;;;;5055691;28;20474;-73
2021/03/12 09:58:06;;;;;;;5.13;0.85;;;9.10;49.80;;;;;;5055909;28;20094;-73
2021/03/12 10:00:32;;;;;;;8.10;1.35;;;9.30;48.80;;;;;;5055634;28;20036;-74
2021/03/12 10:02:59;;;;;;;6.82;1.35;;;9.40;48.20;;;;;;5055625;28;20025;-74
2021/03/12 10:05:25;;;;;;;4.53;0.70;;;9.60;48.20;;;;;;5055117;28;20452;-73
2021/03/12 10:07:52;;;;;;;6.28;0.93;;;9.50;47.20;;;;;;5055290;28;20037;-72
2021/03/12 10:10:19;;;;;;;4.68;1.15;;;9.40;47.50;;;;;;5054546;28;20021;-74
2021/03/12 10:12:48;;;;;;;8.50;1.08;;;9.40;47.70;;;;;;5055181;28;20105;-72
2021/03/12 10:15:17;;;;;;;5.20;0.98;;;9.40;47.00;;;;;;5059013;28;20044;-73
2021/03/12 10:17:44;;;;;;;5.53;1.00;;;9.00;48.10;;;;;;5056732;28;20071;-72
2021/03/12 10:20:20;;;;;;;3.75;0.70;;;8.70;48.00;;;;;;5055486;28;20052;-72
2021/03/12 10:22:51;;;;;;;5.03;0.63;;;8.60;48.90;;;;;;5058030;28;20059;-74
2021/03/12 10:25:31;;;;;;;4.93;0.65;;;8.40;49.30;;;;;;5057956;28;20082;-72
2021/03/12 10:28:05;;;;;;;9.25;0.95;;;8.20;49.40;;;;;;5058050;28;20387;-73
2021/03/12 10:30:57;;;;;;;6.72;0.88;;;8.30;49.60;;;;;;5057466;28;20028;-73
2021/03/12 10:33:29;;;;;;;4.78;0.93;;;8.50;49.50;;;;;;5056008;28;20048;-73
2021/03/12 10:36:03;;;;;;;6.05;1.10;;;8.30;50.10;;;;;;5055614;28;20032;-74
2021/03/12 10:38:33;;;;;;;8.67;1.33;;;8.20;49.90;;;;;;5055269;28;20056;-73
2021/03/12 10:41:01;;;;;;;2.63;0.70;;;8.00;49.50;;;;;;5055797;28;20053;-73
2021/03/12 10:43:29;;;;;;;7.63;1.35;;;7.90;49.60;;;;;;5055817;28;20041;-73
2021/03/12 10:45:58;;;;;;;10.32;1.40;;;8.10;49.80;;;;;;5055227;28;20116;-73
2021/03/12 10:48:27;;;;;;;5.95;1.13;;;8.10;49.80;;;;;;5055132;28;20040;-73
2021/03/12 10:50:57;;;;;;;5.97;1.02;;;7.90;49.80;;;;;;5055440;28;20070;-73
2021/03/12 10:53:24;;;;;;;6.93;1.13;;;8.00;49.60;;;;;;5055521;28;20106;-75
2021/03/12 10:55:52;;;;;;;5.72;0.82;;;8.00;49.30;;;;;;5037504;28;20044;-74
2021/03/12 10:58:25;;;;;;;4.03;0.80;;;8.00;48.90;;;;;;5055274;28;20056;-74
2021/03/12 11:01:10;;;;;;;3.10;0.60;;;8.10;48.70;;;;;;5054956;28;20025;-75
2021/03/12 11:03:38;;;;;;;6.18;1.38;;;8.00;48.80;;;;;;5054985;28;20389;-75
2021/03/12 11:06:04;;;;;;;4.03;1.25;;;7.90;49.30;;;;;;5036484;28;20083;-73
2021/03/12 11:08:30;;;;;;;6.05;1.23;;;7.80;50.30;;;;;;5036762;28;20462;-73
2021/03/12 11:10:57;;;;;;;3.80;0.55;;;7.70;50.40;;;;;;5054854;28;20139;-74
2021/03/12 11:13:23;;;;;;;7.15;0.95;;;7.80;49.60;;;;;;5053810;28;20059;-74
2021/03/12 11:15:49;;;;;;;3.67;0.88;;;8.20;49.10;;;;;;5053612;28;20041;-74
2021/03/12 11:18:15;;;;;;;3.20;0.88;;;8.60;48.20;;;;;;5054246;28;20025;-74
2021/03/12 11:20:40;;;;;;;4.95;1.10;;;8.80;47.70;;;;;;5053881;28;20053;-73
2021/03/12 11:23:06;;;;;;;5.40;1.33;;;8.80;47.20;;;;;;5053929;28;20017;-73
2021/03/12 11:25:32;;;;;;;7.47;0.73;;;8.90;47.00;;;;;;5053805;28;20094;-74
2021/03/12 11:27:58;;;;;;;4.25;1.10;;;9.00;46.80;;;;;;5053766;28;20059;-74
2021/03/12 11:30:25;;;;;;;6.50;1.58;;;9.00;46.70;;;;;;5053944;28;20117;-76
2021/03/12 11:32:50;;;;;;;5.82;0.80;;;9.30;47.50;;;;;;5053930;28;20021;-74
2021/03/12 11:35:17;;;;;;;7.03;1.10;;;9.40;46.50;;;;;;5054001;28;20083;-73
2021/03/12 11:37:43;;;;;;;4.88;1.25;;;9.40;45.50;;;;;;5054088;28;20057;-74
2021/03/12 11:40:11;;;;;;;6.03;1.10;;;9.60;46.00;;;;;;5053822;28;20025;-74
2021/03/12 11:42:38;;;;;;;3.45;0.70;;;9.70;45.20;;;;;;5053895;28;20025;-74
2021/03/12 11:45:06;;;;;;;7.55;0.98;;;9.70;45.00;;;;;;5053846;28;20028;-74
2021/03/12 11:47:31;;;;;;;5.70;1.13;;;9.80;44.10;;;;;;5035636;28;20028;-73
2021/03/12 11:49:57;;;;;;;9.57;1.48;;;10.20;44.10;;;;;;5053451;28;20040;-72
2021/03/12 11:52:26;;;;;;;8.27;1.35;;;10.40;43.20;;;;;;5053323;28;20496;-73
2021/03/12 11:54:55;;;;;;;7.70;1.30;;;10.70;42.60;;;;;;5053048;28;20546;-73
2021/03/12 11:57:22;;;;;;;4.18;1.00;;;10.50;41.50;;;;;;5052223;28;20116;-74
2021/03/12 11:59:48;;;;;;;4.65;1.25;;;10.20;40.60;;;;;;5052625;28;20465;-74
2021/03/12 12:02:15;;;;;;;7.43;1.33;;;10.20;40.80;;;;;;5052387;28;20028;-74
2021/03/12 12:04:42;;;;;;;9.93;1.20;;;10.00;41.10;;;;;;5052496;28;20014;-72
2021/03/12 12:07:08;;;;;;;2.83;0.90;;;10.40;41.50;;;;;;5052690;28;20166;-74
2021/03/12 12:09:33;;;;;;;7.63;1.33;;;10.80;41.30;;;;;;5052420;28;20505;-74
2021/03/12 12:11:59;;;;;;;4.95;1.05;;;10.90;40.80;;;;;;5052703;28;20025;-74
2021/03/12 12:14:24;;;;;;;6.60;1.20;;;10.10;40.60;;;;;;5052875;28;20116;-73
2021/03/12 12:16:50;;;;;;;6.18;1.55;;;9.60;41.80;;;;;;5052948;28;20032;-74
2021/03/12 12:19:17;;;;;;;5.30;1.40;;;9.80;42.70;;;;;;5052882;28;20017;-73
2021/03/12 12:21:44;;;;;;;8.25;1.25;;;10.10;43.10;;;;;;5052329;28;20017;-73
2021/03/12 12:24:09;;;;;;;5.60;1.10;;;10.20;41.60;;;;;;5052855;28;20078;-74
2021/03/12 12:26:36;;;;;;;12.23;1.88;;;10.30;41.20;;;;;;5052141;28;20025;-73
2021/03/12 12:29:04;;;;;;;10.57;1.52;;;10.50;40.40;;;;;;5052969;28;20052;-73
2021/03/12 12:31:30;;;;;;;9.00;1.60;;;11.00;40.10;;;;;;5053002;28;20074;-73
2021/03/12 12:33:56;;;;;;;3.33;0.85;;;11.10;39.60;;;;;;5052609;28;20489;-74
2021/03/12 12:36:23;;;;;;;4.38;1.02;;;10.80;38.60;;;;;;5052642;28;20025;-73
2021/03/12 12:38:49;;;;;;;3.95;1.35;;;10.90;39.10;;;;;;5052518;28;20098;-74
2021/03/12 12:41:16;;;;;;;5.65;1.65;;;11.30;38.30;;;;;;5052611;28;20024;-74
2021/03/12 12:43:42;;;;;;;6.13;0.85;;;11.20;37.30;;;;;;5052580;28;20541;-72
2021/03/12 12:46:07;;;;;;;6.00;1.25;;;10.90;36.80;;;;;;5052078;28;20028;-74
2021/03/12 12:48:33;;;;;;;5.45;1.52;;;10.50;37.10;;;;;;5052516;28;20047;-74
2021/03/12 12:50:59;;;;;;;4.93;0.88;;;10.50;37.70;;;;;;5052869;28;20059;-74
2021/03/12 12:53:24;;;;;;;4.88;1.27;;;10.60;37.50;;;;;;5034535;28;20021;-74
2021/03/12 12:55:50;;;;;;;6.88;1.67;;;10.20;37.50;;;;;;5052314;28;20029;-74
2021/03/12 12:58:17;;;;;;;6.28;1.42;;;10.00;37.90;;;;;;5044738;28;20537;-74
2021/03/12 13:00:42;;;;;;;4.68;1.30;;;9.90;38.30;;;;;;5051896;28;20064;-73
2021/03/12 13:03:08;;;;;;;5.88;1.10;;;9.60;38.60;;;;;;5035060;28;20044;-74